sensor_id;sensor_type;location;lat;lon;timestamp;pressure;altitude;pressure_sealevel;temperature;humidity
57644;BME280;43474;46.510;6.686;2024-03-02T00:00:07;95455.06;;;3.27;100.00
57644;BME280;43474;46.510;6.686;2024-03-02T00:02:59;95444.56;;;3.34;100.00
57644;BME280;43474;46.510;6.686;2024-03-02T00:05:24;95440.69;;;3.36;100.00
57644;BME280;43474;46.510;6.686;2024-03-02T00:07:55;95454.91;;;3.47;100.00
57644;BME280;43474;46.510;6.686;2024-03-02T00:10:40;95454.31;;;3.45;100.00
57644;BME280;43474;46.510;6.686;2024-03-02T00:13:10;95449.34;;;3.37;100.00
57644;BME280;43474;46.510;6.686;2024-03-02T00:15:46;95432.53;;;3.26;100.00
57644;BME280;43474;46.510;6.686;2024-03-02T00:18:18;95441.34;;;3.32;100.00
57644;BME280;43474;46.510;6.686;2024-03-02T00:20:43;95439.97;;;3.29;100.00
57644;BME280;43474;46.510;6.686;2024-03-02T00:23:10;95431.50;;;3.27;100.00
57644;BME280;43474;46.510;6.686;2024-03-02T00:25:44;95444.41;;;3.29;100.00
57644;BME280;43474;46.510;6.686;2024-03-02T00:28:32;95446.41;;;3.27;100.00
57644;BME280;43474;46.510;6.686;2024-03-02T00:31:12;95454.88;;;3.29;100.00
57644;BME280;43474;46.510;6.686;2024-03-02T00:33:45;95459.16;;;3.48;100.00
57644;BME280;43474;46.510;6.686;2024-03-02T00:36:12;95449.78;;;3.34;100.00
57644;BME280;43474;46.510;6.686;2024-03-02T00:38:48;95446.78;;;3.30;100.00
57644;BME280;43474;46.510;6.686;2024-03-02T00:41:23;95443.59;;;3.28;100.00
57644;BME280;43474;46.510;6.686;2024-03-02T00:46:20;95450.13;;;3.19;100.00
57644;BME280;43474;46.510;6.686;2024-03-02T00:48:55;95456.19;;;3.13;100.00
57644;BME280;43474;46.510;6.686;2024-03-02T00:51:21;95453.06;;;3.04;100.00
57644;BME280;43474;46.510;6.686;2024-03-02T00:53:48;95446.63;;;3.00;100.00
57644;BME280;43474;46.510;6.686;2024-03-02T00:56:14;95445.72;;;3.13;100.00
57644;BME280;43474;46.510;6.686;2024-03-02T00:58:40;95447.66;;;3.24;100.00
57644;BME280;43474;46.510;6.686;2024-03-02T01:01:06;95423.00;;;3.14;100.00
57644;BME280;43474;46.510;6.686;2024-03-02T01:03:33;95436.47;;;3.35;100.00
57644;BME280;43474;46.510;6.686;2024-03-02T01:05:59;95420.22;;;3.08;100.00
57644;BME280;43474;46.510;6.686;2024-03-02T01:08:25;95433.41;;;3.20;100.00
57644;BME280;43474;46.510;6.686;2024-03-02T01:10:51;95423.97;;;3.13;100.00
57644;BME280;43474;46.510;6.686;2024-03-02T01:13:17;95420.38;;;3.14;100.00
57644;BME280;43474;46.510;6.686;2024-03-02T01:15:42;95433.81;;;3.17;100.00
57644;BME280;43474;46.510;6.686;2024-03-02T01:18:09;95420.41;;;3.07;100.00
57644;BME280;43474;46.510;6.686;2024-03-02T01:20:35;95426.81;;;3.11;100.00
57644;BME280;43474;46.510;6.686;2024-03-02T01:23:00;95423.31;;;2.99;100.00
57644;BME280;43474;46.510;6.686;2024-03-02T01:25:26;95412.88;;;2.92;100.00
57644;BME280;43474;46.510;6.686;2024-03-02T01:27:52;95431.41;;;3.16;100.00
57644;BME280;43474;46.510;6.686;2024-03-02T01:30:17;95406.34;;;3.01;100.00
57644;BME280;43474;46.510;6.686;2024-03-02T01:32:43;95421.25;;;3.01;100.00
57644;BME280;43474;46.510;6.686;2024-03-02T01:35:09;95426.56;;;2.94;100.00
57644;BME280;43474;46.510;6.686;2024-03-02T01:37:34;95427.03;;;2.84;100.00
57644;BME280;43474;46.510;6.686;2024-03-02T01:40:00;95421.78;;;2.84;100.00
57644;BME280;43474;46.510;6.686;2024-03-02T01:42:26;95432.84;;;2.87;100.00
57644;BME280;43474;46.510;6.686;2024-03-02T01:44:51;95436.41;;;2.92;100.00
57644;BME280;43474;46.510;6.686;2024-03-02T01:47:17;95414.47;;;2.93;100.00
57644;BME280;43474;46.510;6.686;2024-03-02T01:49:43;95410.53;;;3.09;100.00
57644;BME280;43474;46.510;6.686;2024-03-02T01:52:09;95415.75;;;3.34;100.00
57644;BME280;43474;46.510;6.686;2024-03-02T01:54:34;95398.16;;;3.41;100.00
57644;BME280;43474;46.510;6.686;2024-03-02T01:57:00;95419.13;;;3.59;100.00
57644;BME280;43474;46.510;6.686;2024-03-02T01:59:26;95407.75;;;3.47;100.00
57644;BME280;43474;46.510;6.686;2024-03-02T02:01:52;95408.41;;;3.43;100.00
57644;BME280;43474;46.510;6.686;2024-03-02T02:04:18;95388.53;;;3.35;100.00
57644;BME280;43474;46.510;6.686;2024-03-02T02:06:44;95376.66;;;3.14;100.00
57644;BME280;43474;46.510;6.686;2024-03-02T02:09:09;95395.34;;;3.18;100.00
57644;BME280;43474;46.510;6.686;2024-03-02T02:11:35;95402.94;;;3.26;100.00
57644;BME280;43474;46.510;6.686;2024-03-02T02:14:01;95410.53;;;3.34;100.00
57644;BME280;43474;46.510;6.686;2024-03-02T02:16:26;95398.31;;;3.46;100.00
57644;BME280;43474;46.510;6.686;2024-03-02T02:18:52;95393.56;;;3.36;100.00
57644;BME280;43474;46.510;6.686;2024-03-02T02:21:22;95411.63;;;3.45;100.00
57644;BME280;43474;46.510;6.686;2024-03-02T02:23:47;95405.78;;;3.43;100.00
57644;BME280;43474;46.510;6.686;2024-03-02T02:26:14;95406.03;;;3.59;100.00
57644;BME280;43474;46.510;6.686;2024-03-02T02:28:39;95390.75;;;3.56;100.00
57644;BME280;43474;46.510;6.686;2024-03-02T02:31:15;95392.63;;;3.49;100.00
57644;BME280;43474;46.510;6.686;2024-03-02T02:33:42;95393.31;;;3.63;100.00
57644;BME280;43474;46.510;6.686;2024-03-02T02:36:08;95369.56;;;3.40;100.00
57644;BME280;43474;46.510;6.686;2024-03-02T02:38:38;95382.31;;;3.54;100.00
57644;BME280;43474;46.510;6.686;2024-03-02T02:41:05;95377.72;;;3.50;100.00
57644;BME280;43474;46.510;6.686;2024-03-02T02:43:30;95388.19;;;3.50;100.00
57644;BME280;43474;46.510;6.686;2024-03-02T02:45:56;95382.50;;;3.53;100.00
57644;BME280;43474;46.510;6.686;2024-03-02T02:48:21;95386.66;;;3.60;100.00
57644;BME280;43474;46.510;6.686;2024-03-02T02:50:47;95376.31;;;3.47;100.00
57644;BME280;43474;46.510;6.686;2024-03-02T02:53:13;95357.13;;;3.35;100.00
57644;BME280;43474;46.510;6.686;2024-03-02T02:55:39;95370.75;;;3.44;100.00
57644;BME280;43474;46.510;6.686;2024-03-02T02:58:06;95372.56;;;3.43;100.00
57644;BME280;43474;46.510;6.686;2024-03-02T03:00:32;95376.94;;;3.49;100.00
57644;BME280;43474;46.510;6.686;2024-03-02T03:02:57;95366.16;;;3.39;100.00
57644;BME280;43474;46.510;6.686;2024-03-02T03:05:23;95373.25;;;3.32;100.00
57644;BME280;43474;46.510;6.686;2024-03-02T03:07:49;95358.50;;;3.19;100.00
57644;BME280;43474;46.510;6.686;2024-03-02T03:10:16;95360.75;;;3.16;100.00
57644;BME280;43474;46.510;6.686;2024-03-02T03:12:42;95368.03;;;3.14;100.00
57644;BME280;43474;46.510;6.686;2024-03-02T03:15:09;95367.19;;;3.13;100.00
57644;BME280;43474;46.510;6.686;2024-03-02T03:17:35;95374.25;;;3.13;100.00
57644;BME280;43474;46.510;6.686;2024-03-02T03:20:03;95351.81;;;2.98;100.00
57644;BME280;43474;46.510;6.686;2024-03-02T03:22:30;95360.28;;;3.00;100.00
57644;BME280;43474;46.510;6.686;2024-03-02T03:24:56;95353.88;;;2.96;100.00
57644;BME280;43474;46.510;6.686;2024-03-02T03:27:22;95361.66;;;3.03;100.00
57644;BME280;43474;46.510;6.686;2024-03-02T03:29:48;95365.25;;;3.08;100.00
57644;BME280;43474;46.510;6.686;2024-03-02T03:32:13;95347.91;;;2.89;100.00
57644;BME280;43474;46.510;6.686;2024-03-02T03:34:39;95361.94;;;2.95;100.00
57644;BME280;43474;46.510;6.686;2024-03-02T03:37:05;95348.97;;;2.81;100.00
57644;BME280;43474;46.510;6.686;2024-03-02T03:39:31;95355.31;;;2.92;100.00
57644;BME280;43474;46.510;6.686;2024-03-02T03:41:56;95354.44;;;2.98;100.00
57644;BME280;43474;46.510;6.686;2024-03-02T03:44:22;95344.34;;;3.02;100.00
57644;BME280;43474;46.510;6.686;2024-03-02T03:46:48;95355.13;;;3.12;100.00
57644;BME280;43474;46.510;6.686;2024-03-02T03:49:14;95353.06;;;3.39;100.00
57644;BME280;43474;46.510;6.686;2024-03-02T03:51:39;95344.84;;;3.35;100.00
57644;BME280;43474;46.510;6.686;2024-03-02T03:54:05;95337.69;;;3.43;100.00
57644;BME280;43474;46.510;6.686;2024-03-02T03:56:30;95347.53;;;3.66;100.00
57644;BME280;43474;46.510;6.686;2024-03-02T03:58:56;95322.72;;;3.50;100.00
57644;BME280;43474;46.510;6.686;2024-03-02T04:01:22;95348.56;;;3.65;100.00
57644;BME280;43474;46.510;6.686;2024-03-02T04:03:48;95350.66;;;3.74;100.00
57644;BME280;43474;46.510;6.686;2024-03-02T04:06:14;95358.44;;;3.81;100.00
57644;BME280;43474;46.510;6.686;2024-03-02T04:08:42;95351.50;;;3.86;100.00
57644;BME280;43474;46.510;6.686;2024-03-02T04:11:07;95355.84;;;3.93;100.00
57644;BME280;43474;46.510;6.686;2024-03-02T04:13:33;95365.25;;;4.00;100.00
57644;BME280;43474;46.510;6.686;2024-03-02T04:15:59;95369.03;;;4.04;100.00
57644;BME280;43474;46.510;6.686;2024-03-02T04:18:24;95352.94;;;4.01;100.00
57644;BME280;43474;46.510;6.686;2024-03-02T04:20:50;95363.50;;;3.94;100.00
57644;BME280;43474;46.510;6.686;2024-03-02T04:23:16;95355.56;;;4.01;100.00
57644;BME280;43474;46.510;6.686;2024-03-02T04:25:41;95363.06;;;3.97;100.00
57644;BME280;43474;46.510;6.686;2024-03-02T04:28:07;95352.91;;;3.89;100.00
57644;BME280;43474;46.510;6.686;2024-03-02T04:30:33;95360.03;;;3.82;100.00
57644;BME280;43474;46.510;6.686;2024-03-02T04:32:59;95348.56;;;3.65;100.00
57644;BME280;43474;46.510;6.686;2024-03-02T04:35:24;95353.84;;;3.58;100.00
57644;BME280;43474;46.510;6.686;2024-03-02T04:37:50;95358.78;;;3.48;100.00
57644;BME280;43474;46.510;6.686;2024-03-02T04:40:16;95360.41;;;3.49;100.00
57644;BME280;43474;46.510;6.686;2024-03-02T04:42:42;95355.81;;;3.44;100.00
57644;BME280;43474;46.510;6.686;2024-03-02T04:45:08;95356.66;;;3.38;100.00
57644;BME280;43474;46.510;6.686;2024-03-02T04:47:34;95348.91;;;3.31;100.00
57644;BME280;43474;46.510;6.686;2024-03-02T04:50:00;95351.38;;;3.26;100.00
57644;BME280;43474;46.510;6.686;2024-03-02T04:52:25;95342.25;;;3.10;100.00
57644;BME280;43474;46.510;6.686;2024-03-02T04:54:51;95342.72;;;3.26;100.00
57644;BME280;43474;46.510;6.686;2024-03-02T04:57:43;95338.13;;;3.21;100.00
57644;BME280;43474;46.510;6.686;2024-03-02T05:00:09;95339.53;;;3.24;100.00
57644;BME280;43474;46.510;6.686;2024-03-02T05:02:35;95333.03;;;3.26;100.00
57644;BME280;43474;46.510;6.686;2024-03-02T05:05:01;95345.44;;;3.13;100.00
57644;BME280;43474;46.510;6.686;2024-03-02T05:07:28;95334.31;;;2.99;100.00
57644;BME280;43474;46.510;6.686;2024-03-02T05:09:54;95352.81;;;3.04;100.00
57644;BME280;43474;46.510;6.686;2024-03-02T05:12:19;95341.16;;;3.00;100.00
57644;BME280;43474;46.510;6.686;2024-03-02T05:15:04;95338.69;;;3.05;100.00
57644;BME280;43474;46.510;6.686;2024-03-02T05:17:30;95341.53;;;2.78;100.00
57644;BME280;43474;46.510;6.686;2024-03-02T05:19:55;95351.56;;;2.81;100.00
57644;BME280;43474;46.510;6.686;2024-03-02T05:22:21;95334.03;;;2.64;100.00
57644;BME280;43474;46.510;6.686;2024-03-02T05:24:47;95351.09;;;2.66;100.00
57644;BME280;43474;46.510;6.686;2024-03-02T05:27:12;95328.44;;;2.53;100.00
57644;BME280;43474;46.510;6.686;2024-03-02T05:29:38;95325.63;;;2.55;100.00
57644;BME280;43474;46.510;6.686;2024-03-02T05:32:03;95343.66;;;2.63;100.00
57644;BME280;43474;46.510;6.686;2024-03-02T05:34:29;95343.78;;;2.50;100.00
57644;BME280;43474;46.510;6.686;2024-03-02T05:36:56;95345.38;;;2.51;100.00
57644;BME280;43474;46.510;6.686;2024-03-02T05:39:23;95343.16;;;2.54;100.00
57644;BME280;43474;46.510;6.686;2024-03-02T05:41:49;95346.22;;;2.45;100.00
57644;BME280;43474;46.510;6.686;2024-03-02T05:44:15;95325.19;;;2.33;100.00
57644;BME280;43474;46.510;6.686;2024-03-02T05:46:41;95322.38;;;2.35;100.00
57644;BME280;43474;46.510;6.686;2024-03-02T05:49:07;95338.16;;;2.46;100.00
57644;BME280;43474;46.510;6.686;2024-03-02T05:51:33;95336.34;;;2.47;100.00
57644;BME280;43474;46.510;6.686;2024-03-02T05:53:59;95339.59;;;2.42;100.00
57644;BME280;43474;46.510;6.686;2024-03-02T05:56:24;95331.81;;;2.36;100.00
57644;BME280;43474;46.510;6.686;2024-03-02T05:58:50;95317.34;;;2.33;100.00
57644;BME280;43474;46.510;6.686;2024-03-02T06:01:45;95313.91;;;2.32;100.00
57644;BME280;43474;46.510;6.686;2024-03-02T06:04:12;95331.56;;;2.44;100.00
57644;BME280;43474;46.510;6.686;2024-03-02T06:06:39;95326.44;;;2.55;100.00
57644;BME280;43474;46.510;6.686;2024-03-02T06:09:06;95300.59;;;2.41;100.00
57644;BME280;43474;46.510;6.686;2024-03-02T06:11:38;95326.38;;;2.62;100.00
57644;BME280;43474;46.510;6.686;2024-03-02T06:14:05;95311.31;;;2.57;100.00
57644;BME280;43474;46.510;6.686;2024-03-02T06:16:31;95308.28;;;2.61;100.00
57644;BME280;43474;46.510;6.686;2024-03-02T06:18:58;95321.78;;;2.57;100.00
57644;BME280;43474;46.510;6.686;2024-03-02T06:21:24;95321.59;;;2.59;100.00
57644;BME280;43474;46.510;6.686;2024-03-02T06:23:50;95313.25;;;2.69;100.00
57644;BME280;43474;46.510;6.686;2024-03-02T06:26:16;95314.84;;;2.70;100.00
57644;BME280;43474;46.510;6.686;2024-03-02T06:28:42;95318.03;;;2.72;100.00
57644;BME280;43474;46.510;6.686;2024-03-02T06:31:08;95293.78;;;2.65;100.00
57644;BME280;43474;46.510;6.686;2024-03-02T06:33:34;95307.00;;;2.70;100.00
57644;BME280;43474;46.510;6.686;2024-03-02T06:36:00;95300.69;;;2.77;100.00
57644;BME280;43474;46.510;6.686;2024-03-02T06:38:26;95316.59;;;2.76;100.00
57644;BME280;43474;46.510;6.686;2024-03-02T06:40:52;95308.75;;;2.76;100.00
57644;BME280;43474;46.510;6.686;2024-03-02T06:43:18;95312.34;;;2.81;100.00
57644;BME280;43474;46.510;6.686;2024-03-02T06:45:43;95303.53;;;2.76;100.00
57644;BME280;43474;46.510;6.686;2024-03-02T06:48:09;95313.94;;;2.82;100.00
57644;BME280;43474;46.510;6.686;2024-03-02T06:50:34;95321.66;;;2.96;100.00
57644;BME280;43474;46.510;6.686;2024-03-02T06:53:00;95325.00;;;3.03;100.00
57644;BME280;43474;46.510;6.686;2024-03-02T06:55:26;95309.44;;;3.08;100.00
57644;BME280;43474;46.510;6.686;2024-03-02T06:57:51;95310.13;;;3.22;100.00
57644;BME280;43474;46.510;6.686;2024-03-02T07:00:18;95296.31;;;3.33;100.00
57644;BME280;43474;46.510;6.686;2024-03-02T07:02:46;95311.78;;;3.53;100.00
57644;BME280;43474;46.510;6.686;2024-03-02T07:05:12;95310.84;;;3.66;100.00
57644;BME280;43474;46.510;6.686;2024-03-02T07:07:38;95304.06;;;3.76;100.00
57644;BME280;43474;46.510;6.686;2024-03-02T07:10:04;95310.63;;;3.97;100.00
57644;BME280;43474;46.510;6.686;2024-03-02T07:12:30;95312.53;;;4.08;100.00
57644;BME280;43474;46.510;6.686;2024-03-02T07:14:57;95309.09;;;4.08;100.00
57644;BME280;43474;46.510;6.686;2024-03-02T07:17:32;95307.63;;;4.12;100.00
57644;BME280;43474;46.510;6.686;2024-03-02T07:19:58;95306.66;;;4.36;100.00
57644;BME280;43474;46.510;6.686;2024-03-02T07:22:24;95303.38;;;4.41;100.00
57644;BME280;43474;46.510;6.686;2024-03-02T07:24:49;95297.38;;;4.64;100.00
57644;BME280;43474;46.510;6.686;2024-03-02T07:27:16;95293.13;;;4.86;100.00
57644;BME280;43474;46.510;6.686;2024-03-02T07:29:42;95287.22;;;5.03;100.00
57644;BME280;43474;46.510;6.686;2024-03-02T07:32:09;95284.06;;;5.41;100.00
57644;BME280;43474;46.510;6.686;2024-03-02T07:34:36;95271.63;;;5.36;100.00
57644;BME280;43474;46.510;6.686;2024-03-02T07:37:02;95283.38;;;5.57;100.00
57644;BME280;43474;46.510;6.686;2024-03-02T07:39:28;95291.19;;;6.09;100.00
57644;BME280;43474;46.510;6.686;2024-03-02T07:41:55;95288.88;;;6.58;100.00
57644;BME280;43474;46.510;6.686;2024-03-02T07:44:20;95286.63;;;6.50;100.00
57644;BME280;43474;46.510;6.686;2024-03-02T07:46:47;95294.69;;;6.60;100.00
57644;BME280;43474;46.510;6.686;2024-03-02T07:49:15;95283.84;;;6.73;100.00
57644;BME280;43474;46.510;6.686;2024-03-02T07:51:42;95295.19;;;6.74;100.00
57644;BME280;43474;46.510;6.686;2024-03-02T07:54:07;95294.78;;;6.82;100.00
57644;BME280;43474;46.510;6.686;2024-03-02T07:56:34;95293.41;;;7.35;100.00
57644;BME280;43474;46.510;6.686;2024-03-02T07:59:00;95284.94;;;7.72;100.00
57644;BME280;43474;46.510;6.686;2024-03-02T08:01:31;95297.97;;;7.84;100.00
57644;BME280;43474;46.510;6.686;2024-03-02T08:04:00;95291.97;;;7.88;100.00
57644;BME280;43474;46.510;6.686;2024-03-02T08:06:27;95299.78;;;8.05;100.00
57644;BME280;43474;46.510;6.686;2024-03-02T08:08:57;95281.41;;;8.15;100.00
57644;BME280;43474;46.510;6.686;2024-03-02T08:11:23;95284.31;;;8.14;100.00
57644;BME280;43474;46.510;6.686;2024-03-02T08:13:49;95270.06;;;8.37;100.00
57644;BME280;43474;46.510;6.686;2024-03-02T08:16:16;95263.38;;;8.34;100.00
57644;BME280;43474;46.510;6.686;2024-03-02T08:18:42;95262.66;;;8.66;100.00
57644;BME280;43474;46.510;6.686;2024-03-02T08:21:08;95255.41;;;8.88;100.00
57644;BME280;43474;46.510;6.686;2024-03-02T08:23:34;95252.78;;;8.93;100.00
57644;BME280;43474;46.510;6.686;2024-03-02T08:26:00;95248.44;;;9.19;100.00
57644;BME280;43474;46.510;6.686;2024-03-02T08:28:26;95250.19;;;9.46;100.00
57644;BME280;43474;46.510;6.686;2024-03-02T08:30:52;95238.34;;;9.69;100.00
57644;BME280;43474;46.510;6.686;2024-03-02T08:33:17;95237.84;;;9.72;100.00
57644;BME280;43474;46.510;6.686;2024-03-02T08:35:44;95231.38;;;8.95;100.00
57644;BME280;43474;46.510;6.686;2024-03-02T08:38:09;95230.78;;;8.83;100.00
57644;BME280;43474;46.510;6.686;2024-03-02T08:40:35;95228.66;;;8.79;100.00
57644;BME280;43474;46.510;6.686;2024-03-02T08:43:01;95241.38;;;9.25;100.00
57644;BME280;43474;46.510;6.686;2024-03-02T08:45:27;95245.00;;;9.76;100.00
57644;BME280;43474;46.510;6.686;2024-03-02T08:47:52;95240.41;;;10.45;100.00
57644;BME280;43474;46.510;6.686;2024-03-02T08:50:18;95241.47;;;10.79;100.00
57644;BME280;43474;46.510;6.686;2024-03-02T08:52:44;95229.47;;;10.00;100.00
57644;BME280;43474;46.510;6.686;2024-03-02T08:55:09;95231.06;;;10.12;100.00
57644;BME280;43474;46.510;6.686;2024-03-02T08:57:39;95230.31;;;10.72;100.00
57644;BME280;43474;46.510;6.686;2024-03-02T09:00:07;95197.75;;;10.61;100.00
57644;BME280;43474;46.510;6.686;2024-03-02T09:02:35;95197.22;;;10.49;100.00
57644;BME280;43474;46.510;6.686;2024-03-02T09:05:01;95199.56;;;10.81;100.00
57644;BME280;43474;46.510;6.686;2024-03-02T09:07:27;95175.56;;;11.37;100.00
57644;BME280;43474;46.510;6.686;2024-03-02T09:09:55;95188.84;;;12.31;100.00
57644;BME280;43474;46.510;6.686;2024-03-02T09:12:25;95153.47;;;12.36;93.50
57644;BME280;43474;46.510;6.686;2024-03-02T09:14:54;95141.19;;;12.45;87.55
57644;BME280;43474;46.510;6.686;2024-03-02T09:17:20;95170.81;;;12.86;88.30
57644;BME280;43474;46.510;6.686;2024-03-02T09:19:45;95164.81;;;12.12;85.34
57644;BME280;43474;46.510;6.686;2024-03-02T09:22:11;95186.50;;;11.85;92.28
57644;BME280;43474;46.510;6.686;2024-03-02T09:24:37;95150.75;;;11.62;91.03
57644;BME280;43474;46.510;6.686;2024-03-02T09:27:05;95154.72;;;11.70;91.07
57644;BME280;43474;46.510;6.686;2024-03-02T09:29:31;95145.59;;;11.86;91.45
57644;BME280;43474;46.510;6.686;2024-03-02T09:31:57;95155.19;;;11.82;93.19
57644;BME280;43474;46.510;6.686;2024-03-02T09:34:23;95170.06;;;12.18;90.73
57644;BME280;43474;46.510;6.686;2024-03-02T09:36:50;95186.84;;;13.05;88.82
57644;BME280;43474;46.510;6.686;2024-03-02T09:39:17;95158.22;;;13.21;83.92
57644;BME280;43474;46.510;6.686;2024-03-02T09:41:43;95151.50;;;13.71;84.63
57644;BME280;43474;46.510;6.686;2024-03-02T09:44:10;95138.38;;;13.13;83.27
57644;BME280;43474;46.510;6.686;2024-03-02T09:46:35;95196.66;;;13.10;77.65
57644;BME280;43474;46.510;6.686;2024-03-02T09:49:12;95142.91;;;12.89;81.66
57644;BME280;43474;46.510;6.686;2024-03-02T09:51:54;95207.06;;;13.35;75.47
57644;BME280;43474;46.510;6.686;2024-03-02T09:54:20;95165.59;;;13.05;78.16
57644;BME280;43474;46.510;6.686;2024-03-02T09:56:48;95175.94;;;13.55;77.08
57644;BME280;43474;46.510;6.686;2024-03-02T09:59:17;95133.91;;;13.33;74.33
57644;BME280;43474;46.510;6.686;2024-03-02T10:02:00;95188.13;;;13.61;79.17
57644;BME280;43474;46.510;6.686;2024-03-02T10:04:31;95143.38;;;13.63;74.16
57644;BME280;43474;46.510;6.686;2024-03-02T10:07:11;95148.06;;;13.28;77.50
57644;BME280;43474;46.510;6.686;2024-03-02T10:09:41;95141.22;;;12.98;75.98
57644;BME280;43474;46.510;6.686;2024-03-02T10:12:13;95137.19;;;13.49;77.51
57644;BME280;43474;46.510;6.686;2024-03-02T10:15:11;95151.13;;;13.97;71.72
57644;BME280;43474;46.510;6.686;2024-03-02T10:17:41;95153.56;;;14.31;69.50
57644;BME280;43474;46.510;6.686;2024-03-02T10:20:44;95140.56;;;14.43;71.24
57644;BME280;43474;46.510;6.686;2024-03-02T10:23:39;95131.91;;;14.52;68.08
57644;BME280;43474;46.510;6.686;2024-03-02T10:26:20;95158.13;;;15.37;72.63
57644;BME280;43474;46.510;6.686;2024-03-02T10:28:59;95117.84;;;14.65;66.73
57644;BME280;43474;46.510;6.686;2024-03-02T10:32:32;95134.88;;;14.17;69.02
57644;BME280;43474;46.510;6.686;2024-03-02T10:35:48;95111.63;;;14.04;67.23
57644;BME280;43474;46.510;6.686;2024-03-02T10:38:31;95111.84;;;13.89;68.59
57644;BME280;43474;46.510;6.686;2024-03-02T10:41:34;95154.88;;;13.96;69.59
57644;BME280;43474;46.510;6.686;2024-03-02T10:44:14;95115.00;;;13.72;68.62
57644;BME280;43474;46.510;6.686;2024-03-02T10:46:58;95102.63;;;13.25;67.51
57644;BME280;43474;46.510;6.686;2024-03-02T10:49:42;95083.44;;;13.65;70.20
57644;BME280;43474;46.510;6.686;2024-03-02T10:56:04;95072.94;;;14.39;68.77
57644;BME280;43474;46.510;6.686;2024-03-02T11:02:02;95122.72;;;15.04;61.75
57644;BME280;43474;46.510;6.686;2024-03-02T11:04:30;95088.41;;;14.70;61.00
57644;BME280;43474;46.510;6.686;2024-03-02T11:06:59;95071.13;;;13.88;60.30
57644;BME280;43474;46.510;6.686;2024-03-02T11:09:28;95086.97;;;13.80;63.32
57644;BME280;43474;46.510;6.686;2024-03-02T11:15:59;95081.78;;;12.60;65.15
57644;BME280;43474;46.510;6.686;2024-03-02T11:18:41;95043.91;;;12.73;68.05
57644;BME280;43474;46.510;6.686;2024-03-02T11:21:25;95051.28;;;13.24;66.46
57644;BME280;43474;46.510;6.686;2024-03-02T11:23:55;95079.09;;;13.32;66.06
57644;BME280;43474;46.510;6.686;2024-03-02T11:26:40;95030.50;;;13.26;67.17
57644;BME280;43474;46.510;6.686;2024-03-02T11:29:53;95073.72;;;13.75;66.43
57644;BME280;43474;46.510;6.686;2024-03-02T11:32:24;95089.97;;;13.35;67.28
57644;BME280;43474;46.510;6.686;2024-03-02T11:34:53;95047.16;;;13.32;69.64
57644;BME280;43474;46.510;6.686;2024-03-02T11:37:22;95031.16;;;12.94;68.89
57644;BME280;43474;46.510;6.686;2024-03-02T11:39:50;95029.25;;;13.18;70.01
57644;BME280;43474;46.510;6.686;2024-03-02T11:42:17;95027.25;;;13.29;70.40
57644;BME280;43474;46.510;6.686;2024-03-02T11:44:46;94991.91;;;13.29;68.71
57644;BME280;43474;46.510;6.686;2024-03-02T11:47:16;94998.13;;;12.76;69.11
57644;BME280;43474;46.510;6.686;2024-03-02T11:50:01;94999.56;;;12.68;69.94
57644;BME280;43474;46.510;6.686;2024-03-02T11:52:28;95021.19;;;13.05;65.62
57644;BME280;43474;46.510;6.686;2024-03-02T11:54:59;95000.66;;;12.44;64.55
57644;BME280;43474;46.510;6.686;2024-03-02T11:57:34;94984.91;;;12.47;68.03
57644;BME280;43474;46.510;6.686;2024-03-02T12:00:17;94973.56;;;12.41;69.80
57644;BME280;43474;46.510;6.686;2024-03-02T12:02:45;94977.91;;;12.08;68.94
57644;BME280;43474;46.510;6.686;2024-03-02T12:05:16;94995.88;;;11.87;68.72
57644;BME280;43474;46.510;6.686;2024-03-02T12:07:43;94968.19;;;11.64;70.43
57644;BME280;43474;46.510;6.686;2024-03-02T12:10:08;94953.53;;;11.72;69.11
57644;BME280;43474;46.510;6.686;2024-03-02T12:12:41;94963.34;;;11.72;68.23
57644;BME280;43474;46.510;6.686;2024-03-02T12:15:07;94983.53;;;11.68;68.42
57644;BME280;43474;46.510;6.686;2024-03-02T12:17:35;95010.34;;;12.05;70.52
57644;BME280;43474;46.510;6.686;2024-03-02T12:20:11;94941.44;;;11.61;68.67
57644;BME280;43474;46.510;6.686;2024-03-02T12:23:11;94935.03;;;11.62;70.81
57644;BME280;43474;46.510;6.686;2024-03-02T12:25:37;94939.88;;;12.13;67.13
57644;BME280;43474;46.510;6.686;2024-03-02T12:28:15;94939.09;;;11.88;64.55
57644;BME280;43474;46.510;6.686;2024-03-02T12:30:43;94962.78;;;12.09;66.79
57644;BME280;43474;46.510;6.686;2024-03-02T12:33:11;94937.44;;;12.16;70.36
57644;BME280;43474;46.510;6.686;2024-03-02T12:35:39;94901.13;;;12.12;68.00
57644;BME280;43474;46.510;6.686;2024-03-02T12:38:06;94920.47;;;12.60;70.47
57644;BME280;43474;46.510;6.686;2024-03-02T12:40:36;94890.66;;;12.21;68.92
57644;BME280;43474;46.510;6.686;2024-03-02T12:43:05;94945.19;;;12.80;68.12
57644;BME280;43474;46.510;6.686;2024-03-02T12:45:37;94916.50;;;12.58;67.55
57644;BME280;43474;46.510;6.686;2024-03-02T12:48:06;94878.94;;;12.46;67.78
57644;BME280;43474;46.510;6.686;2024-03-02T12:50:33;94873.34;;;12.85;65.06
57644;BME280;43474;46.510;6.686;2024-03-02T12:52:59;94930.28;;;13.54;66.89
57644;BME280;43474;46.510;6.686;2024-03-02T12:55:28;94869.06;;;13.54;65.66
57644;BME280;43474;46.510;6.686;2024-03-02T12:57:59;94904.75;;;14.13;62.09
57644;BME280;43474;46.510;6.686;2024-03-02T13:00:25;94861.97;;;14.46;61.29
57644;BME280;43474;46.510;6.686;2024-03-02T13:03:02;94836.41;;;14.45;60.14
57644;BME280;43474;46.510;6.686;2024-03-02T13:05:34;94865.25;;;14.57;59.74
57644;BME280;43474;46.510;6.686;2024-03-02T13:14:33;94824.41;;;14.84;58.84
57644;BME280;43474;46.510;6.686;2024-03-02T13:17:13;94884.44;;;14.81;60.33
57644;BME280;43474;46.510;6.686;2024-03-02T13:20:00;94835.88;;;14.48;57.81
57644;BME280;43474;46.510;6.686;2024-03-02T13:26:09;94838.78;;;14.46;57.53
57644;BME280;43474;46.510;6.686;2024-03-02T13:36:57;94891.59;;;14.31;57.02
57644;BME280;43474;46.510;6.686;2024-03-02T13:40:14;94830.84;;;13.91;59.64
57644;BME280;43474;46.510;6.686;2024-03-02T13:42:52;94851.34;;;13.63;57.14